Terminal Aerodrome Forecast
Issued by NWS Mt. Holly, NJ

Home | Current Version | Previous Version | Text Only | Print | Product List | Glossary On
Versions: 1 2 3 4 5 6 7 8 9 10 11 12 13 14 15
000
FTUS41 KPHI 031745
TAFILG
TAF
KILG 031745Z 0318/0418 34009KT P6SM FEW045 SCT250
     FM040000 16006KT P6SM SKC
     FM040200 VRB03KT P6SM SCT050
     FM041200 04006KT P6SM SCT035 BKN150
     FM041400 08010KT P6SM SCT025 BKN035=

USA.gov is the U.S. government's official web portal to all federal, state and local government web resources and services.